Time;durP1;ratioP1;P1;durP2;ratioP2;P2;SDS_P1;SDS_P2;PMS_P1;PMS_P2;Temp;Humidity;BMP_temperature;BMP_pressure;BME280_temperature;BME280_humidity;BME280_pressure;Samples;Min_cycle;Max_cycle;Signal;HPM_P1;HPM_P2
2022/08/01 00:00:36;;;;;;;96.30;39.90;;;;;;;19.85;41.13;99628.03;5052879;28;20053;-77
2022/08/01 00:03:03;;;;;;;9.02;3.40;;;;;;;19.83;41.13;99630.44;5052351;28;20052;-77
2022/08/01 00:05:30;;;;;;;7.28;3.25;;;;;;;19.80;41.17;99633.22;5052501;28;20408;-77
2022/08/01 00:08:00;;;;;;;7.25;2.60;;;;;;;19.78;41.07;99627.97;5052265;28;20049;-77
2022/08/01 00:10:27;;;;;;;5.53;2.90;;;;;;;19.68;41.50;99633.53;5052025;28;20057;-77
2022/08/01 00:12:54;;;;;;;6.07;2.67;;;;;;;19.65;41.39;99628.66;5052144;28;20052;-76
2022/08/01 00:15:23;;;;;;;10.13;3.20;;;;;;;19.66;41.39;99624.66;5044160;28;20080;-76
2022/08/01 00:17:49;;;;;;;10.40;3.03;;;;;;;19.63;41.35;99626.22;5052062;28;20056;-75
2022/08/01 00:20:16;;;;;;;6.07;2.92;;;;;;;19.63;41.14;99625.44;5052319;28;20431;-75
2022/08/01 00:22:43;;;;;;;5.55;2.70;;;;;;;19.64;41.43;99624.22;5052237;28;20044;-76
2022/08/01 00:25:10;;;;;;;6.57;2.70;;;;;;;19.63;41.42;99614.94;5052445;28;20044;-77
2022/08/01 00:27:37;;;;;;;5.53;2.72;;;;;;;19.59;41.36;99614.13;5052043;28;20540;-76
2022/08/01 00:30:05;;;;;;;6.65;2.60;;;;;;;19.56;41.58;99617.72;5052269;28;20052;-75
2022/08/01 00:32:39;;;;;;;12.25;5.40;;;;;;;19.54;41.57;99620.13;5052158;28;20061;-75
2022/08/01 00:35:07;;;;;;;6.28;3.00;;;;;;;19.51;41.78;99623.72;5052343;28;20408;-75
2022/08/01 00:37:34;;;;;;;5.72;2.72;;;;;;;19.44;42.13;99623.66;5052028;28;20386;-78
2022/08/01 00:40:00;;;;;;;7.30;2.75;;;;;;;19.45;42.09;99622.47;5052152;28;20063;-76
2022/08/01 00:42:29;;;;;;;6.05;2.58;;;;;;;19.45;42.04;99618.84;5034753;28;20051;-77
2022/08/01 00:44:56;;;;;;;10.60;2.90;;;;;;;19.52;42.07;99624.53;5053419;28;20508;-76
2022/08/01 00:47:25;;;;;;;6.10;2.17;;;;;;;19.52;41.94;99625.34;5055854;28;20071;-77
2022/08/01 00:49:52;;;;;;;7.03;2.45;;;;;;;19.51;42.05;99629.34;5063820;28;20049;-76
2022/08/01 00:52:20;;;;;;;12.55;2.42;;;;;;;19.46;42.39;99629.75;5055811;28;20053;-76
2022/08/01 00:54:50;;;;;;;8.30;2.90;;;;;;;19.40;42.70;99624.84;5055446;28;20046;-76
2022/08/01 00:57:16;;;;;;;7.30;2.72;;;;;;;19.37;42.60;99617.97;5055520;28;20055;-77
2022/08/01 01:00:05;;;;;;;14.57;2.72;;;;;;;19.40;42.69;99622.84;5055688;28;20060;-77
2022/08/01 01:02:33;;;;;;;4.27;2.67;;;;;;;19.40;42.75;99617.19;5055485;28;20141;-76
2022/08/01 01:05:00;;;;;;;6.28;2.75;;;;;;;19.42;42.64;99622.44;5055073;28;20061;-75
2022/08/01 01:07:42;;;;;;;13.98;2.97;;;;;;;19.44;42.73;99615.19;5055468;28;20063;-75
2022/08/01 01:10:24;;;;;;;6.57;2.50;;;;;;;19.41;42.74;99624.44;5055433;28;20041;-76
2022/08/01 01:13:11;;;;;;;6.28;2.60;;;;;;;19.38;42.83;99624.41;5055031;28;20049;-75
2022/08/01 01:15:51;;;;;;;15.63;3.05;;;;;;;19.36;42.92;99621.97;5055243;28;20049;-76
2022/08/01 01:18:24;;;;;;;8.43;2.72;;;;;;;19.27;43.18;99613.03;5057897;28;20048;-75
2022/08/01 01:21:06;;;;;;;6.38;2.70;;;;;;;19.16;43.63;99612.06;5040348;28;20503;-76
2022/08/01 01:24:13;;;;;;;7.22;2.95;;;;;;;19.04;44.02;99620.81;5074790;28;20516;-76
2022/08/01 01:26:43;;;;;;;19.23;3.45;;;;;;;19.00;44.15;99608.69;5075510;28;20059;-76
2022/08/01 01:29:28;;;;;;;;;;;;;;;18.92;44.36;99609.81;5075121;28;20515;-77
2022/08/01 01:32:05;;;;;;;8.35;3.08;;;;;;;18.94;44.43;99615.88;5074905;28;19924;-76
2022/08/01 01:34:37;;;;;;;11.23;2.85;;;;;;;18.92;44.69;99612.63;5074990;28;20563;-75
2022/08/01 01:37:08;;;;;;;11.20;3.28;;;;;;;18.95;44.58;99611.84;5075170;28;20549;-74
2022/08/01 01:39:38;;;;;;;10.52;3.40;;;;;;;18.97;44.58;99615.09;5075288;28;20063;-76
2022/08/01 01:42:10;;;;;;;7.22;2.80;;;;;;;18.96;44.69;99609.84;5074728;28;20127;-76
2022/08/01 01:44:40;;;;;;;11.55;3.20;;;;;;;18.93;44.69;99614.28;5074756;28;20394;-75
2022/08/01 01:47:07;;;;;;;14.48;3.20;;;;;;;18.88;44.90;99606.16;5074665;28;20483;-76
2022/08/01 01:49:34;;;;;;;14.40;3.08;;;;;;;18.88;44.97;99606.16;5067125;28;20147;-77
2022/08/01 01:52:03;;;;;;;10.30;2.97;;;;;;;18.89;45.03;99619.03;5074615;28;20079;-76
2022/08/01 01:54:39;;;;;;;10.52;3.65;;;;;;;18.94;44.99;99615.06;5074692;28;20044;-76
2022/08/01 01:57:07;;;;;;;20.08;3.75;;;;;;;18.94;44.95;99610.25;5073278;28;20040;-76
2022/08/01 01:59:37;;;;;;;6.55;3.03;;;;;;;18.92;44.52;99623.91;5074288;28;20419;-76
2022/08/01 02:02:06;;;;;;;9.90;3.07;;;;;;;18.93;44.88;99619.91;5074468;28;20131;-76
2022/08/01 02:04:37;;;;;;;12.98;3.17;;;;;;;18.93;44.79;99610.63;5074188;28;20287;-75
2022/08/01 02:07:06;;;;;;;13.63;3.28;;;;;;;18.91;44.97;99610.19;5074254;28;20438;-76
2022/08/01 02:09:35;;;;;;;7.88;3.13;;;;;;;18.88;45.18;99616.59;5056054;28;20070;-76
2022/08/01 02:12:03;;;;;;;14.23;3.45;;;;;;;18.82;45.19;99618.97;5074211;28;20050;-76
2022/08/01 02:14:55;;;;;;;7.65;3.17;;;;;;;18.81;45.52;99614.53;5059413;28;20135;-76
2022/08/01 02:17:24;;;;;;;11.20;3.10;;;;;;;18.82;45.47;99613.31;5074579;28;20102;-75
2022/08/01 02:19:53;;;;;;;11.80;3.55;;;;;;;18.80;45.23;99598.00;5073989;28;20146;-75
2022/08/01 02:22:27;;;;;;;17.45;3.35;;;;;;;18.87;45.07;99607.34;5074146;28;20056;-77
2022/08/01 02:25:02;;;;;;;7.57;3.58;;;;;;;18.90;45.06;99606.59;5059655;28;20041;-76
2022/08/01 02:27:34;;;;;;;7.75;3.08;;;;;;;18.91;44.83;99616.66;5053687;28;20135;-76
2022/08/01 02:30:05;;;;;;;7.45;3.83;;;;;;;18.92;44.80;99609.81;5053732;28;20120;-78
2022/08/01 02:32:38;;;;;;;11.63;3.80;;;;;;;18.95;44.70;99611.84;5053791;28;20401;-77
2022/08/01 02:35:09;;;;;;;11.07;3.40;;;;;;;18.93;44.58;99614.28;5053806;28;20060;-76
2022/08/01 02:37:39;;;;;;;9.57;3.70;;;;;;;18.93;44.57;99608.63;5053543;28;20526;-76
2022/08/01 02:40:14;;;;;;;10.68;3.72;;;;;;;18.93;44.63;99614.28;5053341;28;20139;-76
2022/08/01 02:42:49;;;;;;;8.82;3.03;;;;;;;18.94;44.32;99615.06;5053516;28;20051;-76
2022/08/01 02:45:24;;;;;;;13.82;3.28;;;;;;;18.92;44.70;99621.09;5053747;28;20049;-67
2022/08/01 02:47:58;;;;;;;12.52;3.60;;;;;;;18.95;44.70;99617.50;5053219;28;20063;-69
2022/08/01 02:50:28;;;;;;;13.40;3.80;;;;;;;19.01;44.86;99617.97;5046330;28;20063;-68
2022/08/01 02:52:56;;;;;;;9.25;3.95;;;;;;;19.03;44.43;99618.38;5053439;28;20051;-69
2022/08/01 02:55:25;;;;;;;8.93;3.40;;;;;;;19.04;44.47;99615.16;5053526;28;20051;-69
2022/08/01 02:57:53;;;;;;;9.98;3.83;;;;;;;19.06;44.29;99604.31;5052928;28;20102;-69
2022/08/01 03:00:28;;;;;;;7.85;3.55;;;;;;;19.10;44.33;99613.63;5046025;28;20518;-68
2022/08/01 03:02:56;;;;;;;12.85;3.90;;;;;;;19.12;44.42;99610.41;5052845;28;20443;-68
2022/08/01 03:05:24;;;;;;;9.40;4.15;;;;;;;19.16;44.19;99612.06;5053093;28;20132;-68
2022/08/01 03:07:55;;;;;;;11.40;3.35;;;;;;;19.16;44.04;99617.72;5052616;28;20049;-69
2022/08/01 03:10:28;;;;;;;10.07;4.10;;;;;;;19.22;44.21;99621.00;5036939;28;20466;-69
2022/08/01 03:12:58;;;;;;;7.75;4.15;;;;;;;19.24;44.17;99619.41;5052652;28;20064;-69
2022/08/01 03:15:30;;;;;;;10.63;3.75;;;;;;;19.23;43.85;99612.16;5053360;28;20049;-75
2022/08/01 03:18:00;;;;;;;9.45;3.97;;;;;;;19.29;44.05;99612.63;5053194;28;20057;-76
2022/08/01 03:20:30;;;;;;;12.15;4.30;;;;;;;19.30;44.05;99612.25;5052710;28;20055;-76
2022/08/01 03:22:59;;;;;;;;;;;;;;;19.26;43.99;99616.19;5052857;28;20053;-76
2022/08/01 03:25:28;;;;;;;5.15;3.25;;;;;;;19.31;44.07;99613.88;5053067;28;19925;-76
2022/08/01 03:27:59;;;;;;;11.82;4.15;;;;;;;19.41;43.86;99618.81;5053057;28;20040;-76
2022/08/01 03:30:27;;;;;;;14.48;4.03;;;;;;;19.50;43.82;99613.63;5053238;28;20056;-68
2022/08/01 03:32:55;;;;;;;8.68;3.80;;;;;;;19.61;43.66;99617.38;5052478;28;20056;-67
2022/08/01 03:35:25;;;;;;;13.10;3.53;;;;;;;19.83;43.05;99607.84;5052743;28;20047;-77
2022/08/01 03:37:55;;;;;;;9.73;3.88;;;;;;;19.93;42.91;99609.91;5052810;28;20139;-76
2022/08/01 03:40:49;;;;;;;9.23;3.40;;;;;;;20.02;42.89;99614.41;5037832;28;20056;-76
2022/08/01 03:43:28;;;;;;;14.27;3.85;;;;;;;20.11;42.82;99606.41;5052672;28;20053;-76
2022/08/01 03:46:01;;;;;;;15.53;4.10;;;;;;;20.16;42.63;99608.91;5052270;28;20052;-77
2022/08/01 03:48:30;;;;;;;11.70;3.80;;;;;;;20.13;42.60;99604.03;5032546;28;20296;-77
2022/08/01 03:50:59;;;;;;;10.00;4.93;;;;;;;20.12;42.93;99608.03;5031962;28;20061;-76
2022/08/01 03:53:29;;;;;;;11.30;3.80;;;;;;;20.17;42.68;99604.88;5032586;28;20079;-78
2022/08/01 03:55:59;;;;;;;9.95;3.80;;;;;;;20.20;42.61;99604.06;5032657;28;20049;-76
2022/08/01 03:58:28;;;;;;;9.98;4.03;;;;;;;20.22;42.26;99596.03;5032565;28;20050;-77
2022/08/01 04:00:56;;;;;;;14.80;3.72;;;;;;;20.27;42.46;99601.28;5014651;28;20057;-75
2022/08/01 04:03:24;;;;;;;6.40;3.30;;;;;;;20.35;42.31;99600.94;5032182;28;20057;-77
2022/08/01 04:05:50;;;;;;;7.15;3.33;;;;;;;20.40;42.25;99597.72;5032802;28;20050;-75
2022/08/01 04:08:17;;;;;;;7.68;3.20;;;;;;;20.48;42.30;99598.53;5032426;28;20049;-78
2022/08/01 04:10:44;;;;;;;11.25;3.58;;;;;;;20.55;42.07;99605.06;5032472;28;20049;-76
2022/08/01 04:13:15;;;;;;;6.90;3.28;;;;;;;20.60;41.65;99599.00;5043984;28;20098;-77
2022/08/01 04:15:42;;;;;;;11.95;4.03;;;;;;;20.66;41.81;99599.47;5052777;28;20052;-75
2022/08/01 04:18:09;;;;;;;6.25;3.78;;;;;;;20.69;41.54;99593.00;5052056;28;20045;-76
2022/08/01 04:20:36;;;;;;;10.88;3.75;;;;;;;20.74;41.86;99598.25;5055443;28;20463;-77
2022/08/01 04:23:03;;;;;;;6.05;3.45;;;;;;;20.81;41.65;99606.78;5056225;28;20037;-77
2022/08/01 04:25:36;;;;;;;8.50;4.13;;;;;;;20.93;41.46;99609.22;5056552;28;20048;-75
2022/08/01 04:28:07;;;;;;;13.02;3.78;;;;;;;21.00;41.49;99612.09;5056060;28;20089;-75
2022/08/01 04:30:37;;;;;;;6.35;3.65;;;;;;;21.10;41.33;99602.81;5055779;28;20136;-76
2022/08/01 04:33:07;;;;;;;11.88;3.90;;;;;;;21.19;41.16;99603.22;5056415;28;20049;-76
2022/08/01 04:35:36;;;;;;;12.10;3.80;;;;;;;21.24;41.10;99614.16;5055846;28;20099;-76
2022/08/01 04:38:27;;;;;;;7.60;3.80;;;;;;;21.33;40.96;99608.91;5056193;28;20059;-68
2022/08/01 04:40:54;;;;;;;13.68;3.75;;;;;;;21.36;40.93;99600.44;5056005;28;20094;-69
2022/08/01 04:43:22;;;;;;;5.82;3.20;;;;;;;21.46;40.78;99615.78;5055751;28;20048;-69
2022/08/01 04:45:51;;;;;;;11.65;3.42;;;;;;;21.53;40.04;99610.16;5056087;28;20052;-68
2022/08/01 04:48:21;;;;;;;6.07;3.00;;;;;;;21.59;39.93;99608.53;5055578;28;20055;-68
2022/08/01 04:50:49;;;;;;;4.60;3.00;;;;;;;21.63;39.89;99609.34;5055454;28;20049;-68
2022/08/01 04:53:21;;;;;;;6.15;3.20;;;;;;;21.76;39.52;99606.94;5055713;28;20053;-68
2022/08/01 04:55:48;;;;;;;8.13;3.05;;;;;;;21.80;39.24;99613.41;5055872;28;20049;-69
2022/08/01 04:58:15;;;;;;;4.25;2.30;;;;;;;21.84;38.98;99615.03;5055660;28;20067;-77
2022/08/01 05:00:47;;;;;;;6.93;2.95;;;;;;;21.96;38.51;99610.97;5055920;28;20385;-77
2022/08/01 05:03:14;;;;;;;6.68;2.80;;;;;;;22.04;38.39;99613.38;5055336;28;20053;-76
2022/08/01 05:05:41;;;;;;;5.13;2.35;;;;;;;22.02;38.03;99618.63;5053750;28;20048;-78
2022/08/01 05:08:08;;;;;;;8.27;2.10;;;;;;;21.98;37.83;99612.19;5053745;28;20057;-77
2022/08/01 05:10:35;;;;;;;6.07;2.72;;;;;;;22.04;37.51;99629.56;5037719;28;20404;-77
2022/08/01 05:13:02;;;;;;;14.30;2.33;;;;;;;22.12;37.58;99623.50;5055178;28;20135;-76
2022/08/01 05:15:29;;;;;;;6.93;2.55;;;;;;;22.22;37.40;99619.81;5054778;28;20080;-77
2022/08/01 05:17:56;;;;;;;4.90;2.17;;;;;;;22.37;37.29;99615.72;5054618;28;20048;-77
2022/08/01 05:20:23;;;;;;;4.95;2.20;;;;;;;22.57;37.17;99619.75;5055212;28;20041;-77
2022/08/01 05:22:50;;;;;;;5.80;1.92;;;;;;;22.66;37.03;99620.13;5054970;28;20152;-76
2022/08/01 05:25:17;;;;;;;3.50;2.15;;;;;;;22.80;36.97;99611.53;5054842;28;20411;-76
2022/08/01 05:27:46;;;;;;;4.65;2.03;;;;;;;22.96;36.70;99606.19;5054821;28;20053;-77
2022/08/01 05:30:16;;;;;;;4.03;1.90;;;;;;;23.19;36.57;99611.31;5054197;28;20049;-76
2022/08/01 05:32:43;;;;;;;3.63;1.60;;;;;;;23.34;35.96;99610.03;5054769;28;20045;-77
2022/08/01 05:35:10;;;;;;;3.55;1.85;;;;;;;23.46;35.87;99608.72;5054915;28;20060;-76
2022/08/01 05:37:37;;;;;;;3.33;1.80;;;;;;;23.71;35.64;99617.84;5036525;28;20051;-74
2022/08/01 05:40:05;;;;;;;5.45;1.88;;;;;;;23.94;35.46;99604.63;5054865;28;20045;-75
2022/08/01 05:42:32;;;;;;;3.95;1.92;;;;;;;24.21;34.59;99610.47;5054307;28;20052;-75
2022/08/01 05:44:59;;;;;;;6.05;2.13;;;;;;;24.48;34.15;99608.56;5054924;28;20072;-75
2022/08/01 05:47:26;;;;;;;4.75;1.83;;;;;;;24.79;33.70;99610.25;5054792;28;20057;-76
2022/08/01 05:49:52;;;;;;;3.30;1.92;;;;;;;25.00;33.73;99607.09;5055326;28;20492;-75
2022/08/01 05:52:19;;;;;;;4.38;1.50;;;;;;;25.25;32.71;99601.84;5054078;28;20119;-75
2022/08/01 05:54:46;;;;;;;5.32;1.75;;;;;;;25.46;32.42;99606.44;5054468;28;20049;-75
2022/08/01 05:57:13;;;;;;;4.97;1.60;;;;;;;25.54;32.12;99600.19;5045841;28;20052;-76
2022/08/01 05:59:41;;;;;;;4.88;1.83;;;;;;;26.02;31.63;99606.31;5054090;28;20131;-76
2022/08/01 06:02:08;;;;;;;5.18;1.60;;;;;;;26.67;30.38;99596.09;5054256;28;20103;-75
2022/08/01 06:04:36;;;;;;;5.35;1.73;;;;;;;27.36;29.18;99610.09;5054058;28;20061;-69
2022/08/01 06:07:03;;;;;;;3.22;1.65;;;;;;;27.57;28.06;99603.88;5054231;28;20216;-69
2022/08/01 06:09:30;;;;;;;3.80;1.55;;;;;;;27.50;28.09;99597.53;5054383;28;20060;-69
2022/08/01 06:11:57;;;;;;;10.20;2.20;;;;;;;28.73;26.57;99606.50;5054413;28;20064;-69
2022/08/01 06:14:27;;;;;;;9.63;1.50;;;;;;;30.44;24.06;99604.22;5054517;28;20055;-69
2022/08/01 06:16:53;;;;;;;4.30;1.55;;;;;;;31.27;23.15;99600.22;5048837;28;20073;-69
2022/08/01 06:19:20;;;;;;;3.17;1.40;;;;;;;32.56;21.78;99604.63;5054228;28;20063;-68
2022/08/01 06:21:47;;;;;;;10.48;2.20;;;;;;;31.54;22.96;99602.44;5053725;28;20045;-69
2022/08/01 06:24:14;;;;;;;3.22;1.58;;;;;;;29.99;24.56;99619.69;5053868;28;20057;-69
2022/08/01 06:26:42;;;;;;;9.75;2.00;;;;;;;29.15;25.27;99613.03;5053948;28;20527;-69
2022/08/01 06:29:09;;;;;;;7.68;2.10;;;;;;;28.60;25.44;99613.44;5053606;28;20144;-69
2022/08/01 06:31:37;;;;;;;4.65;2.38;;;;;;;28.21;26.10;99608.75;5053902;28;20448;-69
2022/08/01 06:34:12;;;;;;;4.63;2.08;;;;;;;27.81;26.75;99607.34;5053724;28;20075;-69
2022/08/01 06:36:39;;;;;;;7.82;2.33;;;;;;;27.65;27.17;99615.94;5053923;28;20179;-69
2022/08/01 06:39:05;;;;;;;7.35;2.00;;;;;;;27.48;27.18;99615.13;5053305;28;20059;-69
2022/08/01 06:41:32;;;;;;;4.85;2.05;;;;;;;28.04;26.54;99610.06;5053338;28;20053;-69
2022/08/01 06:44:02;;;;;;;10.63;2.20;;;;;;;28.85;25.34;99614.31;5035303;28;20060;-69
2022/08/01 06:46:29;;;;;;;4.78;1.77;;;;;;;28.67;25.62;99607.50;5048549;28;20059;-68
2022/08/01 06:48:58;;;;;;;;;;;;;;;28.00;26.42;99615.03;5053569;28;20056;-68
2022/08/01 06:51:25;;;;;;;4.15;1.80;;;;;;;27.87;26.88;99617.84;5053147;28;19956;-68
2022/08/01 06:53:53;;;;;;;4.38;1.85;;;;;;;27.62;27.29;99609.03;5053320;28;20057;-69
2022/08/01 06:56:20;;;;;;;9.50;2.05;;;;;;;27.60;27.65;99619.31;5053060;28;20049;-69
2022/08/01 06:58:49;;;;;;;6.05;1.95;;;;;;;27.75;27.11;99626.28;5052726;28;20055;-68
2022/08/01 07:01:16;;;;;;;4.80;2.53;;;;;;;29.44;25.29;99623.16;5035082;28;20084;-69
2022/08/01 07:03:44;;;;;;;5.60;2.35;;;;;;;31.77;22.08;99617.06;5052916;28;20416;-69
2022/08/01 07:06:23;;;;;;;5.80;2.65;;;;;;;31.30;22.85;99630.13;5052687;28;20056;-68
2022/08/01 07:08:50;;;;;;;6.82;2.40;;;;;;;30.22;24.44;99620.63;5053178;28;20068;-67
2022/08/01 07:11:17;;;;;;;6.47;2.70;;;;;;;29.92;25.00;99634.28;5052953;28;20419;-68
2022/08/01 07:13:45;;;;;;;4.63;2.22;;;;;;;30.93;23.44;99625.41;5052810;28;20049;-67
2022/08/01 07:16:13;;;;;;;7.22;2.45;;;;;;;32.82;21.58;99622.38;5052657;28;20051;-68
2022/08/01 07:18:41;;;;;;;4.88;2.60;;;;;;;34.79;19.77;99627.78;5052501;28;20057;-69
2022/08/01 07:21:08;;;;;;;7.03;2.70;;;;;;;36.95;17.31;99626.31;5034717;28;20053;-69
2022/08/01 07:23:55;;;;;;;6.57;2.42;;;;;;;38.95;15.90;99621.50;5052293;28;20061;-69
2022/08/01 07:26:22;;;;;;;7.13;2.47;;;;;;;40.30;14.05;99628.47;5052684;28;20051;-67
2022/08/01 07:28:49;;;;;;;5.68;3.10;;;;;;;41.51;13.27;99619.94;5052646;28;20060;-68
2022/08/01 07:31:16;;;;;;;12.20;2.42;;;;;;;42.47;12.63;99627.28;5068856;28;20499;-68
2022/08/01 07:33:43;;;;;;;6.20;3.78;;;;;;;42.98;11.94;99615.16;5072432;28;20037;-67
2022/08/01 07:36:17;;;;;;;12.05;4.78;;;;;;;43.83;11.87;99614.13;5032685;28;20049;-67
2022/08/01 07:38:45;;;;;;;7.78;2.40;;;;;;;45.02;10.91;99624.63;5032296;28;20045;-67
2022/08/01 07:41:13;;;;;;;6.53;2.35;;;;;;;45.67;10.38;99627.38;5044234;28;20048;-67
2022/08/01 07:43:40;;;;;;;8.77;2.28;;;;;;;46.58;9.68;99611.28;5052046;28;20056;-68
2022/08/01 07:46:18;;;;;;;8.25;2.45;;;;;;;47.38;9.00;99628.34;5052427;28;20076;-67
2022/08/01 07:48:45;;;;;;;7.68;5.57;;;;;;;47.35;8.93;99626.59;5052973;28;20048;-76
2022/08/01 07:51:13;;;;;;;37.50;7.57;;;;;;;46.91;9.15;99625.81;5052305;28;20053;-76
2022/08/01 07:53:40;;;;;;;6.13;2.10;;;;;;;47.24;8.99;99638.75;5056260;28;20059;-76
2022/08/01 07:56:06;;;;;;;9.70;2.63;;;;;;;47.85;8.87;99623.56;5068825;28;20785;-76
2022/08/01 07:58:33;;;;;;;11.17;2.20;;;;;;;48.33;8.40;99623.81;5068792;28;20049;-77
2022/08/01 08:01:00;;;;;;;8.43;2.35;;;;;;;48.34;7.95;99617.31;5052182;28;20096;-77
2022/08/01 08:03:27;;;;;;;7.25;2.28;;;;;;;48.06;8.28;99629.28;5052078;28;20107;-77
2022/08/01 08:05:54;;;;;;;5.83;2.53;;;;;;;48.18;8.10;99621.59;5052367;28;20040;-77
2022/08/01 08:08:26;;;;;;;9.77;2.45;;;;;;;48.11;8.25;99619.47;5070462;28;20052;-76
2022/08/01 08:10:53;;;;;;;7.60;3.67;;;;;;;47.77;8.62;99604.28;5072386;28;20060;-77
2022/08/01 08:13:20;;;;;;;5.20;2.15;;;;;;;48.47;8.36;99620.03;5064016;28;20048;-77
2022/08/01 08:15:47;;;;;;;;;;;;;;;49.03;7.66;99621.66;5072670;28;20538;-76
2022/08/01 08:18:15;;;;;;;5.70;2.30;;;;;;;50.31;7.12;99615.69;5071951;28;20399;-77
2022/08/01 08:20:42;;;;;;;;;;;;;;;51.21;6.83;99610.97;5072668;28;20061;-77
2022/08/01 08:26:10;;;;;;;3.67;2.03;;;;;;;51.91;6.13;99607.16;5031897;28;19925;-78
2022/08/01 08:28:38;;;;;;;8.30;2.30;;;;;;;52.77;5.57;99610.38;5031852;28;20045;-77
2022/08/01 08:31:06;;;;;;;10.65;2.47;;;;;;;53.61;5.19;99607.97;5032317;28;20420;-76
2022/08/01 08:33:51;;;;;;;7.63;2.65;;;;;;;50.80;6.24;99605.94;5031678;28;20427;-78
2022/08/01 08:36:18;;;;;;;20.70;2.67;;;;;;;48.43;7.18;99607.03;5035389;28;20079;-77
2022/08/01 08:38:47;;;;;;;3.08;1.90;;;;;;;46.55;8.27;99600.69;5057421;28;20052;-76
2022/08/01 08:41:14;;;;;;;10.05;2.47;;;;;;;46.56;8.46;99590.47;5051303;28;20048;-76
2022/08/01 08:43:46;;;;;;;12.15;2.55;;;;;;;45.53;8.90;99594.31;5051094;28;20049;-76
2022/08/01 08:46:14;;;;;;;12.60;2.60;;;;;;;44.98;9.33;99586.75;5051905;28;20385;-77
2022/08/01 08:48:42;;;;;;;4.53;1.90;;;;;;;45.76;8.43;99583.53;5052080;28;20041;-78
2022/08/01 08:51:11;;;;;;;4.97;1.88;;;;;;;47.06;7.73;99586.78;5051813;28;20053;-77
2022/08/01 08:53:44;;;;;;;3.33;1.90;;;;;;;47.91;6.95;99585.03;5051861;28;20403;-77
2022/08/01 08:56:13;;;;;;;10.60;2.80;;;;;;;49.86;6.46;99594.56;5051927;28;20072;-77
2022/08/01 08:58:45;;;;;;;5.35;1.70;;;;;;;50.43;5.90;99587.16;5051345;28;20098;-78
2022/08/01 09:01:12;;;;;;;3.22;2.00;;;;;;;51.10;5.50;99586.97;5051957;28;20492;-79
2022/08/01 09:03:40;;;;;;;5.55;2.20;;;;;;;52.41;5.09;99584.50;5051411;28;20065;-78
2022/08/01 09:06:07;;;;;;;3.28;1.77;;;;;;;53.90;3.88;99584.84;5053347;28;20428;-77
2022/08/01 09:08:35;;;;;;;3.58;2.00;;;;;;;54.80;4.21;99596.50;5055218;28;20068;-78
2022/08/01 09:11:03;;;;;;;5.38;2.40;;;;;;;54.81;3.70;99589.91;5055116;28;20057;-77
2022/08/01 09:13:30;;;;;;;5.82;2.00;;;;;;;55.48;3.44;99593.06;5055009;28;20516;-78
2022/08/01 09:15:58;;;;;;;5.22;2.00;;;;;;;55.04;3.12;99593.00;5062197;28;20052;-77
2022/08/01 09:18:27;;;;;;;4.78;2.35;;;;;;;55.27;3.09;99578.19;5048704;28;20100;-61
2022/08/01 09:21:09;;;;;;;4.10;2.10;;;;;;;56.48;2.86;99580.88;5042870;28;20080;-62
2022/08/01 09:23:39;;;;;;;7.50;2.17;;;;;;;56.81;2.58;99569.47;5056690;28;20052;-62
2022/08/01 09:26:33;;;;;;;3.72;2.30;;;;;;;56.73;2.68;99583.19;5055221;28;20095;-64
2022/08/01 09:29:05;;;;;;;5.25;2.63;;;;;;;56.74;2.91;99566.78;5058695;28;20127;-63
2022/08/01 09:31:43;;;;;;;14.07;3.03;;;;;;;57.12;2.27;99581.06;5059911;28;20049;-63
2022/08/01 09:34:14;;;;;;;9.68;2.35;;;;;;;57.23;1.80;99576.50;5054672;28;20098;-63
2022/08/01 09:36:57;;;;;;;37.88;20.95;;;;;;;56.89;2.15;99575.97;5067721;28;20048;-62
2022/08/01 09:39:27;;;;;;;5.72;1.90;;;;;;;56.81;2.37;99572.47;5068990;28;20051;-62
2022/08/01 09:41:56;;;;;;;4.63;1.90;;;;;;;55.96;2.73;99561.81;5054559;28;20074;-64
2022/08/01 09:44:40;;;;;;;2.38;1.40;;;;;;;52.04;4.51;99557.06;5071103;28;20040;-64
2022/08/01 09:47:12;;;;;;;5.82;1.70;;;;;;;47.60;6.53;99553.94;5072117;28;20049;-63
2022/08/01 09:49:42;;;;;;;34.60;7.25;;;;;;;43.35;8.77;99555.78;5074537;28;20086;-63
2022/08/01 09:52:23;;;;;;;10.95;2.20;;;;;;;40.18;10.74;99556.91;5063897;28;20049;-62
2022/08/01 09:55:04;;;;;;;6.70;1.80;;;;;;;38.11;12.70;99544.75;5053975;28;20098;-62
2022/08/01 09:57:33;;;;;;;8.98;1.77;;;;;;;36.46;13.77;99541.09;5053689;28;20052;-63
2022/08/01 10:00:02;;;;;;;6.28;1.52;;;;;;;35.19;15.12;99544.16;5054681;28;20135;-63
2022/08/01 10:02:38;;;;;;;10.32;1.73;;;;;;;34.15;16.15;99542.88;5036462;28;20056;-63
2022/08/01 10:05:09;;;;;;;14.80;2.70;;;;;;;33.41;17.25;99538.81;5062291;28;20068;-63
2022/08/01 10:07:55;;;;;;;6.55;1.85;;;;;;;32.76;17.90;99530.00;5054364;28;20049;-62
2022/08/01 10:10:24;;;;;;;11.98;1.63;;;;;;;31.85;19.11;99531.25;5034314;28;20053;-62
2022/08/01 10:12:56;;;;;;;5.82;1.70;;;;;;;31.30;19.29;99546.75;5034240;28;20413;-64
2022/08/01 10:15:25;;;;;;;2.90;1.63;;;;;;;31.01;19.81;99535.56;5034411;28;20417;-63
2022/08/01 10:18:08;;;;;;;35.78;14.85;;;;;;;30.77;20.53;99534.47;5042253;28;20045;-62
2022/08/01 10:20:53;;;;;;;4.18;2.10;;;;;;;30.30;21.12;99533.78;5050813;28;20041;-63
2022/08/01 10:23:26;;;;;;;7.25;1.52;;;;;;;29.98;21.29;99548.44;5053373;28;20512;-64
2022/08/01 10:26:08;;;;;;;10.00;1.67;;;;;;;29.67;21.31;99536.00;5054244;28;20410;-62
2022/08/01 10:28:36;;;;;;;25.33;3.28;;;;;;;29.57;21.65;99543.69;5053771;28;20128;-62
2022/08/01 10:31:07;;;;;;;6.22;1.75;;;;;;;29.59;21.45;99541.16;5053743;28;20045;-65
2022/08/01 10:33:41;;;;;;;5.03;2.47;;;;;;;29.46;21.20;99528.09;5053571;28;20053;-62
2022/08/01 10:36:22;;;;;;;4.88;1.55;;;;;;;29.71;21.23;99534.63;5051685;28;20079;-63
2022/08/01 10:38:53;;;;;;;4.93;1.73;;;;;;;29.81;21.36;99544.13;5052980;28;20397;-63
2022/08/01 10:41:20;;;;;;;;;;;;;;;29.47;21.51;99544.03;5052887;28;20124;-62
2022/08/01 10:43:47;;;;;;;7.22;1.92;;;;;;;29.25;22.21;99541.06;5049164;28;19946;-62
2022/08/01 10:46:15;;;;;;;10.20;1.70;;;;;;;28.92;22.71;99539.63;5052940;28;20040;-65
2022/08/01 10:48:51;;;;;;;5.78;1.83;;;;;;;28.63;22.95;99549.56;5046073;28;20536;-63
2022/08/01 10:51:21;;;;;;;4.85;1.77;;;;;;;28.37;23.12;99540.06;5049015;28;20052;-67
2022/08/01 10:54:10;;;;;;;6.25;1.83;;;;;;;28.24;23.34;99539.22;5046311;28;20660;-68
2022/08/01 10:56:43;;;;;;;10.00;1.60;;;;;;;28.23;23.23;99531.88;5047704;28;20478;-64
2022/08/01 10:59:21;;;;;;;7.97;2.17;;;;;;;28.08;23.51;99519.22;5049737;28;20466;-62
2022/08/01 11:02:08;;;;;;;8.02;1.98;;;;;;;28.04;23.89;99529.97;5048846;28;20053;-62
2022/08/01 11:04:47;;;;;;;9.60;2.45;;;;;;;28.06;24.11;99521.72;5051359;28;20582;-62
2022/08/01 11:07:23;;;;;;;6.05;1.67;;;;;;;28.03;24.45;99523.44;5052790;28;20064;-62
2022/08/01 11:10:10;;;;;;;5.07;1.75;;;;;;;27.86;24.71;99521.03;5049198;28;20053;-65
2022/08/01 11:12:42;;;;;;;6.53;1.80;;;;;;;27.61;25.24;99524.53;5048360;28;20047;-66
2022/08/01 11:15:12;;;;;;;3.58;1.80;;;;;;;27.55;25.46;99525.53;5051316;28;20411;-63
2022/08/01 11:17:47;;;;;;;4.65;1.80;;;;;;;27.57;25.44;99523.03;5049870;28;20049;-64
2022/08/01 11:20:35;;;;;;;10.40;1.60;;;;;;;27.55;25.23;99514.91;5052046;28;20139;-63
2022/08/01 11:23:09;;;;;;;11.60;2.00;;;;;;;27.61;25.18;99513.13;5049046;28;20117;-62
2022/08/01 11:25:36;;;;;;;4.07;1.70;;;;;;;27.69;24.99;99508.00;5056486;28;20048;-65
2022/08/01 11:28:27;;;;;;;14.90;7.60;;;;;;;27.69;24.68;99508.00;5050640;28;20423;-64
2022/08/01 11:31:07;;;;;;;6.63;2.20;;;;;;;27.65;24.88;99501.59;5056380;28;20106;-65
2022/08/01 11:33:42;;;;;;;7.43;2.13;;;;;;;27.62;24.58;99508.22;5051471;28;20075;-68
2022/08/01 11:36:20;;;;;;;3.85;1.67;;;;;;;27.53;24.80;99505.97;5050517;28;20507;-63
2022/08/01 11:39:06;;;;;;;3.45;2.10;;;;;;;27.47;25.29;99498.41;5050259;28;20049;-64
2022/08/01 11:41:40;;;;;;;6.50;2.35;;;;;;;27.55;25.26;99503.47;5052166;28;20049;-64
2022/08/01 11:44:10;;;;;;;4.32;2.25;;;;;;;27.55;25.25;99499.81;5032538;28;20041;-62
2022/08/01 11:46:48;;;;;;;3.63;1.77;;;;;;;27.50;25.67;99503.22;5050867;28;20045;-62
2022/08/01 11:49:44;;;;;;;5.53;1.90;;;;;;;27.49;25.57;99507.31;5050666;28;20139;-62
2022/08/01 11:52:18;;;;;;;9.38;2.10;;;;;;;27.23;25.36;99491.22;5041641;28;20064;-62
2022/08/01 11:54:48;;;;;;;9.23;1.98;;;;;;;27.24;25.56;99492.81;5050409;28;20076;-66